createdAt,value
2023-01-06T00:00:38.794Z,95.37
2023-01-06T00:01:41.441Z,94.07
2023-01-06T00:02:43.195Z,93.42
2023-01-06T00:03:49.898Z,92.45
2023-01-06T00:04:52.861Z,92.26
2023-01-06T00:05:58.916Z,94.53
2023-01-06T00:07:00.483Z,95.51
2023-01-06T00:08:03.198Z,94.94
2023-01-06T00:09:06.192Z,94.50
2023-01-06T00:10:09.427Z,94.29
2023-01-06T00:11:13.880Z,93.31
2023-01-06T00:12:16.415Z,92.70
2023-01-06T00:13:17.965Z,91.88
2023-01-06T00:14:20.410Z,91.04
2023-01-06T00:15:21.979Z,90.01
2023-01-06T00:16:25.023Z,89.29
2023-01-06T00:17:26.548Z,89.44
2023-01-06T00:18:29.057Z,90.18
2023-01-06T00:19:30.547Z,89.80
2023-01-06T00:20:34.608Z,89.59
2023-01-06T00:21:36.127Z,89.47
2023-01-06T00:22:42.768Z,89.28
2023-01-06T00:23:45.290Z,88.91
2023-01-06T00:24:46.797Z,88.78
2023-01-06T00:25:52.589Z,88.14
2023-01-06T00:26:54.178Z,88.44
2023-01-06T00:27:57.317Z,89.03
2023-01-06T00:28:59.765Z,88.93
2023-01-06T00:30:01.500Z,88.61
2023-01-06T00:31:08.151Z,88.57
2023-01-06T00:32:09.776Z,88.05
2023-01-06T00:33:12.377Z,87.90
2023-01-06T00:34:13.977Z,88.40
2023-01-06T00:35:16.737Z,89.77
2023-01-06T00:36:21.673Z,91.99
2023-01-06T00:37:24.151Z,93.69
2023-01-06T00:38:25.699Z,95.44
2023-01-06T00:39:28.125Z,98.58
2023-01-06T00:40:29.627Z,100.00
2023-01-06T00:41:50.034Z,100.00
2023-01-06T00:42:52.488Z,100.00
2023-01-06T00:43:54.139Z,100.00
2023-01-06T00:44:56.625Z,100.00
2023-01-06T00:45:58.189Z,100.00
2023-01-06T00:47:01.034Z,100.00
2023-01-06T00:48:03.474Z,100.00
2023-01-06T00:49:07.142Z,100.00
2023-01-06T00:50:10.607Z,99.71
2023-01-06T00:51:12.109Z,97.85
2023-01-06T00:52:16.230Z,96.33
2023-01-06T00:53:17.771Z,95.02
2023-01-06T00:54:20.982Z,93.49
2023-01-06T00:55:22.626Z,92.43
2023-01-06T00:56:25.080Z,91.91
2023-01-06T00:57:27.210Z,92.25
2023-01-06T00:58:31.206Z,91.75
2023-01-06T00:59:32.738Z,91.62
2023-01-06T01:00:35.241Z,91.52
2023-01-06T01:01:37.203Z,92.79
2023-01-06T01:02:39.931Z,92.71
2023-01-06T01:03:41.941Z,93.13
2023-01-06T01:04:44.458Z,92.91
2023-01-06T01:05:45.947Z,91.89
2023-01-06T01:06:49.359Z,91.29
2023-01-06T01:07:53.097Z,90.74
2023-01-06T01:08:55.970Z,89.91
2023-01-06T01:09:58.415Z,89.32
2023-01-06T01:11:04.088Z,89.36
2023-01-06T01:12:13.072Z,88.88
2023-01-06T01:13:14.548Z,88.43
2023-01-06T01:14:19.007Z,88.08
2023-01-06T01:15:22.437Z,87.35
2023-01-06T01:16:23.961Z,86.88
2023-01-06T01:17:28.739Z,86.87
2023-01-06T01:18:30.477Z,86.72
2023-01-06T01:19:33.151Z,87.98
2023-01-06T01:20:35.913Z,88.02
2023-01-06T01:21:37.997Z,88.33
2023-01-06T01:22:40.458Z,88.09
2023-01-06T01:23:43.265Z,87.20
2023-01-06T01:24:45.876Z,87.34
2023-01-06T01:25:47.415Z,87.16
2023-01-06T01:26:50.302Z,86.86
2023-01-06T01:27:52.989Z,86.62
2023-01-06T01:28:54.475Z,86.83
2023-01-06T01:29:56.946Z,87.15
2023-01-06T01:30:59.418Z,88.06
2023-01-06T01:32:02.046Z,88.16
2023-01-06T01:33:03.596Z,87.82
2023-01-06T01:34:06.089Z,87.25
2023-01-06T01:35:09.114Z,86.85
2023-01-06T01:36:13.598Z,87.47
2023-01-06T01:37:16.168Z,86.92
2023-01-06T01:38:17.781Z,87.10
2023-01-06T01:39:24.692Z,86.95
2023-01-06T01:40:26.385Z,88.02
2023-01-06T01:41:30.011Z,87.50
2023-01-06T01:42:32.514Z,87.72
2023-01-06T01:43:44.258Z,87.39
2023-01-06T01:45:01.880Z,86.89
2023-01-06T01:46:03.462Z,87.19
2023-01-06T01:47:06.159Z,87.84
2023-01-06T01:48:16.812Z,87.67
2023-01-06T01:49:23.541Z,87.16
2023-01-06T01:50:32.269Z,86.59
2023-01-06T01:51:39.398Z,86.28
2023-01-06T01:52:43.866Z,86.05
2023-01-06T01:53:48.469Z,85.69
2023-01-06T01:54:54.251Z,85.43
2023-01-06T01:55:58.747Z,85.45
2023-01-06T01:57:05.005Z,85.46
2023-01-06T01:58:10.982Z,85.05
2023-01-06T01:59:16.237Z,84.78
2023-01-06T02:00:19.950Z,85.26
2023-01-06T02:01:21.543Z,85.36
2023-01-06T02:02:25.057Z,85.21
2023-01-06T02:03:28.498Z,85.27
2023-01-06T02:04:34.479Z,84.67
2023-01-06T02:05:40.466Z,84.50
2023-01-06T02:06:42.302Z,85.20
2023-01-06T02:07:45.043Z,84.97
2023-01-06T02:08:54.613Z,84.99
2023-01-06T02:10:06.776Z,84.80
2023-01-06T02:11:10.536Z,85.10
2023-01-06T02:12:12.338Z,85.13
2023-01-06T02:13:14.878Z,85.15
2023-01-06T02:14:19.525Z,84.79
2023-01-06T02:15:25.561Z,84.74
2023-01-06T02:16:34.947Z,84.69
2023-01-06T02:17:51.390Z,84.68
2023-01-06T02:18:59.648Z,85.58
2023-01-06T02:20:30.857Z,85.35
2023-01-06T02:21:42.786Z,86.10
2023-01-06T02:23:04.130Z,86.48
2023-01-06T02:24:45.120Z,86.19
2023-01-06T02:26:44.619Z,86.72
2023-01-06T02:28:20.914Z,89.12
2023-01-06T02:29:52.687Z,88.89
2023-01-06T02:31:27.807Z,89.54
2023-01-06T02:32:40.833Z,88.69
2023-01-06T02:33:49.841Z,89.26
2023-01-06T02:35:01.777Z,91.69
2023-01-06T02:36:18.004Z,95.09
2023-01-06T02:37:33.488Z,97.56
2023-01-06T02:38:48.410Z,97.25
2023-01-06T02:40:04.870Z,95.69
2023-01-06T02:41:23.059Z,94.33
2023-01-06T02:42:35.351Z,93.27
2023-01-06T02:43:47.391Z,94.69
2023-01-06T02:45:04.028Z,94.12
2023-01-06T02:46:15.536Z,93.71
2023-01-06T02:47:22.573Z,95.31
2023-01-06T02:48:33.304Z,96.32
2023-01-06T02:49:45.934Z,96.01
2023-01-06T02:50:56.585Z,96.08
2023-01-06T02:52:03.525Z,94.97
2023-01-06T02:53:10.726Z,93.92
2023-01-06T02:54:21.276Z,93.58
2023-01-06T02:55:29.404Z,93.93
2023-01-06T02:56:38.094Z,93.16
2023-01-06T02:57:45.527Z,92.88
2023-01-06T02:58:54.086Z,93.31
2023-01-06T03:00:01.448Z,92.91
2023-01-06T03:01:08.389Z,92.86
2023-01-06T03:02:11.295Z,92.54
2023-01-06T03:03:17.852Z,94.71
2023-01-06T03:04:24.787Z,95.14
2023-01-06T03:05:29.113Z,95.22
2023-01-06T03:06:34.028Z,95.95
2023-01-06T03:07:38.473Z,95.93
2023-01-06T03:08:41.101Z,95.90
2023-01-06T03:09:44.733Z,95.68
2023-01-06T03:10:47.539Z,95.66
2023-01-06T03:11:52.106Z,95.40
2023-01-06T03:12:59.792Z,95.36
2023-01-06T03:14:07.506Z,95.42
2023-01-06T03:15:10.267Z,94.16
2023-01-06T03:16:13.319Z,93.85
2023-01-06T03:17:14.961Z,93.45
2023-01-06T03:18:18.044Z,93.17
2023-01-06T03:19:21.327Z,92.97
2023-01-06T03:20:24.106Z,93.29
2023-01-06T03:21:30.592Z,93.56
2023-01-06T03:22:38.786Z,93.51
2023-01-06T03:23:42.495Z,93.17
2023-01-06T03:24:45.328Z,93.00
2023-01-06T03:25:47.823Z,92.71
2023-01-06T03:26:52.320Z,91.65
2023-01-06T03:27:54.839Z,92.88
2023-01-06T03:28:56.505Z,92.91
2023-01-06T03:29:59.403Z,92.34
2023-01-06T03:31:09.507Z,93.06
2023-01-06T03:32:20.091Z,92.77
2023-01-06T03:33:28.288Z,92.75
2023-01-06T03:34:45.239Z,92.72
2023-01-06T03:36:00.341Z,92.98
2023-01-06T03:37:10.748Z,93.65
2023-01-06T03:38:21.960Z,95.85
2023-01-06T03:39:32.125Z,96.19
2023-01-06T03:40:40.638Z,96.67
2023-01-06T03:42:05.748Z,97.06
2023-01-06T03:43:12.304Z,98.32
2023-01-06T03:44:20.904Z,97.93
2023-01-06T03:45:40.160Z,97.00
2023-01-06T03:46:51.977Z,96.04
2023-01-06T03:47:59.812Z,95.32
2023-01-06T03:49:08.265Z,95.36
2023-01-06T03:50:17.315Z,94.98
2023-01-06T03:51:31.600Z,95.50
2023-01-06T03:52:39.501Z,96.11
2023-01-06T03:53:47.825Z,95.44
2023-01-06T03:54:57.691Z,94.51
2023-01-06T03:56:10.384Z,94.07
2023-01-06T03:57:15.302Z,94.92
2023-01-06T03:58:20.518Z,93.97
2023-01-06T03:59:26.442Z,94.04
2023-01-06T04:00:32.708Z,94.02
2023-01-06T04:01:34.467Z,93.65
2023-01-06T04:02:38.726Z,94.54
2023-01-06T04:03:44.791Z,95.72
2023-01-06T04:05:01.490Z,95.77
2023-01-06T04:06:05.726Z,95.46
2023-01-06T04:07:07.333Z,95.71
2023-01-06T04:08:09.877Z,95.37
2023-01-06T04:09:11.680Z,95.13
2023-01-06T04:10:15.914Z,96.63
2023-01-06T04:11:37.759Z,97.34
2023-01-06T04:12:39.597Z,96.38
2023-01-06T04:13:42.235Z,95.35
2023-01-06T04:14:43.727Z,94.94
2023-01-06T04:15:46.169Z,94.37
2023-01-06T04:16:47.673Z,94.05
2023-01-06T04:17:50.770Z,94.24
2023-01-06T04:18:52.420Z,94.23
2023-01-06T04:19:54.930Z,93.71
2023-01-06T04:20:56.399Z,93.75
2023-01-06T04:22:00.196Z,94.19
2023-01-06T04:23:01.746Z,94.96
2023-01-06T04:24:04.468Z,95.35
2023-01-06T04:25:07.173Z,95.48
2023-01-06T04:26:09.648Z,95.44
2023-01-06T04:27:11.156Z,94.93
2023-01-06T04:28:13.564Z,95.44
2023-01-06T04:29:15.101Z,96.59
2023-01-06T04:30:18.006Z,95.66
2023-01-06T04:31:19.618Z,95.62
2023-01-06T04:32:22.183Z,96.18
2023-01-06T04:33:23.878Z,96.58
2023-01-06T04:34:26.315Z,97.75
2023-01-06T04:35:28.749Z,97.88
2023-01-06T04:36:31.315Z,97.08
2023-01-06T04:37:34.420Z,96.70
2023-01-06T04:38:36.949Z,97.02
2023-01-06T04:39:38.459Z,96.88
2023-01-06T04:40:42.379Z,96.36
2023-01-06T04:41:44.005Z,96.64
2023-01-06T04:43:04.498Z,96.69
2023-01-06T04:44:07.144Z,96.30
2023-01-06T04:45:09.192Z,97.18
2023-01-06T04:46:11.733Z,96.94
2023-01-06T04:47:13.243Z,96.97
2023-01-06T04:48:15.707Z,96.53
2023-01-06T04:49:17.216Z,96.27
2023-01-06T04:50:19.768Z,96.31
2023-01-06T04:51:21.301Z,95.29
2023-01-06T04:52:23.757Z,95.50
2023-01-06T04:53:26.595Z,94.26
2023-01-06T04:54:29.102Z,94.76
2023-01-06T04:55:31.704Z,94.50
2023-01-06T04:56:33.203Z,94.92
2023-01-06T04:57:35.655Z,94.76
2023-01-06T04:58:37.821Z,95.74
2023-01-06T04:59:40.288Z,95.38
2023-01-06T05:00:41.816Z,95.28
2023-01-06T05:01:44.405Z,94.89
2023-01-06T05:02:46.300Z,94.22
2023-01-06T05:03:48.955Z,94.53
2023-01-06T05:04:50.456Z,93.35
2023-01-06T05:05:52.867Z,93.35
2023-01-06T05:06:54.385Z,93.72
2023-01-06T05:07:56.969Z,95.99
2023-01-06T05:08:59.826Z,96.34
2023-01-06T05:10:02.333Z,96.46
2023-01-06T05:11:06.049Z,96.10
2023-01-06T05:12:08.998Z,97.82
2023-01-06T05:13:10.551Z,100.00
2023-01-06T05:14:13.154Z,100.00
2023-01-06T05:15:14.893Z,100.00
2023-01-06T05:16:21.784Z,100.00
2023-01-06T05:17:24.362Z,100.00
2023-01-06T05:18:25.888Z,100.00
2023-01-06T05:19:28.397Z,100.00
2023-01-06T05:20:29.945Z,100.00
2023-01-06T05:21:33.119Z,100.00
2023-01-06T05:22:34.672Z,99.35
2023-01-06T05:23:37.288Z,97.55
2023-01-06T05:24:41.058Z,96.65
2023-01-06T05:25:42.644Z,96.79
2023-01-06T05:26:45.073Z,97.03
2023-01-06T05:27:46.582Z,97.05
2023-01-06T05:28:49.627Z,96.80
2023-01-06T05:29:51.136Z,96.68
2023-01-06T05:30:53.974Z,95.97
2023-01-06T05:31:55.620Z,95.94
2023-01-06T05:32:58.025Z,96.87
2023-01-06T05:34:00.465Z,96.69
2023-01-06T05:35:01.985Z,96.16
2023-01-06T05:36:06.784Z,95.76
2023-01-06T05:37:08.309Z,95.19
2023-01-06T05:38:10.770Z,94.74
2023-01-06T05:39:12.309Z,94.26
2023-01-06T05:40:16.232Z,93.89
2023-01-06T05:41:17.730Z,93.85
2023-01-06T05:42:20.203Z,93.57
2023-01-06T05:43:21.714Z,92.95
2023-01-06T05:44:24.256Z,93.40
2023-01-06T05:45:26.113Z,93.81
2023-01-06T05:46:28.676Z,93.82
2023-01-06T05:47:30.210Z,93.55
2023-01-06T05:48:32.651Z,93.66
2023-01-06T05:49:35.159Z,93.21
2023-01-06T05:50:36.681Z,93.45
2023-01-06T05:51:39.188Z,93.25
2023-01-06T05:52:40.855Z,94.40
2023-01-06T05:53:45.198Z,94.21
2023-01-06T05:54:46.892Z,94.57
2023-01-06T05:55:50.651Z,94.31
2023-01-06T05:56:52.155Z,93.69
2023-01-06T05:57:54.667Z,94.05
2023-01-06T05:58:56.324Z,93.76
2023-01-06T05:59:58.956Z,93.43
2023-01-06T06:01:00.849Z,93.05
2023-01-06T06:02:03.338Z,92.19
2023-01-06T06:03:04.994Z,92.11
2023-01-06T06:04:07.534Z,92.08
2023-01-06T06:05:09.375Z,92.93
2023-01-06T06:06:12.406Z,93.41
2023-01-06T06:07:13.968Z,92.64
2023-01-06T06:08:16.464Z,92.44
2023-01-06T06:09:18.920Z,92.03
2023-01-06T06:10:20.463Z,92.18
2023-01-06T06:11:24.224Z,91.79
2023-01-06T06:12:25.765Z,91.36
2023-01-06T06:13:28.204Z,91.14
2023-01-06T06:14:30.692Z,90.90
2023-01-06T06:15:33.122Z,91.11
2023-01-06T06:16:35.154Z,91.08
2023-01-06T06:17:37.737Z,91.75
2023-01-06T06:18:42.859Z,92.36
2023-01-06T06:19:45.350Z,94.66
2023-01-06T06:20:46.842Z,94.65
2023-01-06T06:21:49.325Z,95.65
2023-01-06T06:22:50.817Z,95.33
2023-01-06T06:23:53.783Z,96.38
2023-01-06T06:24:56.274Z,96.34
2023-01-06T06:25:57.959Z,98.33
2023-01-06T06:27:01.885Z,98.83
2023-01-06T06:28:03.385Z,99.07
2023-01-06T06:29:06.885Z,99.71
2023-01-06T06:30:09.092Z,99.01
2023-01-06T06:31:13.894Z,99.34
2023-01-06T06:32:15.440Z,99.46
2023-01-06T06:33:17.916Z,100.00
2023-01-06T06:34:19.532Z,99.53
2023-01-06T06:35:21.998Z,98.67
2023-01-06T06:36:25.022Z,97.79
2023-01-06T06:37:26.542Z,98.19
2023-01-06T06:38:29.409Z,99.24
2023-01-06T06:39:30.939Z,100.00
2023-01-06T06:40:33.394Z,100.00
2023-01-06T06:41:35.878Z,99.51
2023-01-06T06:42:38.719Z,99.60
2023-01-06T06:43:41.494Z,99.21
2023-01-06T06:44:43.008Z,98.28
2023-01-06T06:45:45.567Z,97.75
2023-01-06T06:46:50.082Z,97.24
2023-01-06T06:47:53.640Z,97.46
2023-01-06T06:48:56.181Z,98.82
2023-01-06T06:49:57.726Z,100.00
2023-01-06T06:51:01.788Z,99.83
2023-01-06T06:52:04.450Z,100.00
2023-01-06T06:53:06.302Z,99.04
2023-01-06T06:54:08.761Z,99.54
2023-01-06T06:55:11.215Z,99.58
2023-01-06T06:56:14.091Z,98.63
2023-01-06T06:57:16.569Z,99.49
2023-01-06T06:58:19.418Z,99.74
2023-01-06T06:59:21.844Z,100.00
2023-01-06T07:00:23.604Z,100.00
2023-01-06T07:01:26.224Z,100.00
2023-01-06T07:02:27.905Z,100.00
2023-01-06T07:03:30.417Z,100.00
2023-01-06T07:04:32.982Z,100.00
2023-01-06T07:05:34.894Z,100.00
2023-01-06T07:06:37.404Z,100.00
2023-01-06T07:07:38.957Z,100.00
2023-01-06T07:08:44.471Z,100.00
2023-01-06T07:09:46.051Z,100.00
2023-01-06T07:10:48.575Z,100.00
2023-01-06T07:11:50.118Z,100.00
2023-01-06T07:12:52.596Z,100.00
2023-01-06T07:13:55.827Z,99.87
2023-01-06T07:14:58.315Z,100.00
2023-01-06T07:15:59.918Z,99.79
2023-01-06T07:17:02.898Z,98.49
2023-01-06T07:18:05.815Z,96.95
2023-01-06T07:19:09.636Z,97.18
2023-01-06T07:20:11.716Z,97.73
2023-01-06T07:21:14.191Z,98.78
2023-01-06T07:22:16.666Z,98.53
2023-01-06T07:23:18.292Z,97.91
2023-01-06T07:24:20.737Z,97.72
2023-01-06T07:25:23.449Z,98.45
2023-01-06T07:26:25.909Z,99.39
2023-01-06T07:27:27.432Z,98.96
2023-01-06T07:28:32.018Z,98.93
2023-01-06T07:29:34.855Z,98.54
2023-01-06T07:30:38.649Z,98.13
2023-01-06T07:31:40.166Z,97.94
2023-01-06T07:32:42.717Z,97.67
2023-01-06T07:33:45.254Z,97.69
2023-01-06T07:34:46.760Z,97.81
2023-01-06T07:35:53.447Z,97.66
2023-01-06T07:36:55.078Z,97.31
2023-01-06T07:38:03.396Z,96.72
2023-01-06T07:39:05.038Z,96.40
2023-01-06T07:40:08.480Z,95.75
2023-01-06T07:41:11.207Z,94.78
2023-01-06T07:42:12.862Z,94.33
2023-01-06T07:43:15.372Z,94.57
2023-01-06T07:44:18.120Z,94.24
2023-01-06T07:45:21.064Z,94.48
2023-01-06T07:46:25.149Z,94.28
2023-01-06T07:47:26.780Z,93.93
2023-01-06T07:48:29.269Z,93.71
2023-01-06T07:49:30.809Z,93.08
2023-01-06T07:50:33.801Z,93.35
2023-01-06T07:51:35.299Z,93.33
2023-01-06T07:52:37.844Z,93.25
2023-01-06T07:53:39.357Z,94.82
2023-01-06T07:54:41.857Z,94.74
2023-01-06T07:55:51.151Z,94.79
2023-01-06T07:56:52.727Z,95.54
2023-01-06T07:57:55.589Z,96.07
2023-01-06T07:58:57.148Z,97.03
2023-01-06T07:59:59.589Z,96.90
2023-01-06T08:01:06.672Z,97.77
2023-01-06T08:02:11.507Z,99.48
2023-01-06T08:03:13.193Z,100.00
2023-01-06T08:04:15.817Z,100.00
2023-01-06T08:05:17.410Z,100.00
2023-01-06T08:06:19.885Z,100.00
2023-01-06T08:07:22.351Z,100.00
2023-01-06T08:08:24.869Z,100.00
2023-01-06T08:09:26.501Z,100.00
2023-01-06T08:10:28.927Z,100.00
2023-01-06T08:11:30.444Z,100.00
2023-01-06T08:12:32.984Z,100.00
2023-01-06T08:13:34.707Z,100.00
2023-01-06T08:14:37.187Z,100.00
2023-01-06T08:15:39.426Z,100.00
2023-01-06T08:16:43.419Z,100.00
2023-01-06T08:17:44.998Z,100.00
2023-01-06T08:18:47.961Z,100.00
2023-01-06T08:19:49.733Z,100.00
2023-01-06T08:20:52.390Z,100.00
2023-01-06T08:21:53.877Z,100.00
2023-01-06T08:22:56.457Z,100.00
2023-01-06T08:23:58.935Z,100.00
2023-01-06T08:25:00.637Z,100.00
2023-01-06T08:26:04.957Z,100.00
2023-01-06T08:27:06.462Z,100.00
2023-01-06T08:28:08.948Z,100.00
2023-01-06T08:29:11.560Z,100.00
2023-01-06T08:30:13.551Z,100.00
2023-01-06T08:31:18.691Z,100.00
2023-01-06T08:32:21.800Z,100.00
2023-01-06T08:33:25.887Z,100.00
2023-01-06T08:34:28.500Z,100.00
2023-01-06T08:35:30.996Z,100.00
2023-01-06T08:36:33.503Z,100.00
2023-01-06T08:37:35.844Z,100.00
2023-01-06T08:38:38.536Z,100.00
2023-01-06T08:39:40.117Z,100.00
2023-01-06T08:40:42.601Z,100.00
2023-01-06T08:41:44.213Z,100.00
2023-01-06T08:42:46.965Z,100.00
2023-01-06T08:43:49.982Z,100.00
2023-01-06T08:44:52.509Z,100.00
2023-01-06T08:45:58.783Z,100.00
2023-01-06T08:47:01.291Z,100.00
2023-01-06T08:48:04.484Z,100.00
2023-01-06T08:49:07.143Z,100.00
2023-01-06T08:50:10.194Z,100.00
2023-01-06T08:51:14.343Z,100.00
2023-01-06T08:52:16.911Z,100.00
2023-01-06T08:53:19.422Z,100.00
2023-01-06T08:54:21.352Z,100.00
2023-01-06T08:55:23.914Z,100.00
2023-01-06T08:56:28.062Z,100.00
2023-01-06T08:57:30.554Z,100.00
2023-01-06T08:58:33.011Z,100.00
2023-01-06T08:59:35.599Z,100.00
2023-01-06T09:00:41.536Z,100.00
2023-01-06T09:01:45.235Z,100.00
2023-01-06T09:02:48.010Z,100.00
2023-01-06T09:03:51.712Z,100.00
2023-01-06T09:04:56.222Z,99.56
2023-01-06T09:05:58.506Z,99.66
2023-01-06T09:07:01.031Z,100.00
2023-01-06T09:08:02.854Z,100.00
2023-01-06T09:09:06.282Z,100.00
2023-01-06T09:10:08.671Z,99.67
2023-01-06T09:11:12.467Z,98.71
2023-01-06T09:12:14.934Z,97.74
2023-01-06T09:13:17.558Z,99.21
2023-01-06T09:14:20.388Z,99.78
2023-01-06T09:15:21.985Z,99.31
2023-01-06T09:16:24.612Z,99.22
2023-01-06T09:17:26.250Z,98.02
2023-01-06T09:18:28.988Z,97.93
2023-01-06T09:19:32.829Z,97.71
2023-01-06T09:20:34.528Z,97.83
2023-01-06T09:21:37.573Z,98.05
2023-01-06T09:22:40.136Z,97.83
2023-01-06T09:23:41.730Z,97.61
2023-01-06T09:24:44.281Z,96.57
2023-01-06T09:25:45.779Z,96.68
2023-01-06T09:26:49.650Z,96.53
2023-01-06T09:27:51.353Z,96.81
2023-01-06T09:28:53.945Z,95.77
2023-01-06T09:29:55.441Z,95.20
2023-01-06T09:30:57.873Z,94.88
2023-01-06T09:32:00.345Z,94.29
2023-01-06T09:33:01.899Z,92.77
2023-01-06T09:34:04.492Z,93.04
2023-01-06T09:35:10.016Z,92.36
2023-01-06T09:36:27.416Z,91.64
2023-01-06T09:37:28.945Z,92.56
2023-01-06T09:38:31.479Z,91.47
2023-01-06T09:39:33.071Z,91.28
2023-01-06T09:40:46.009Z,92.17
2023-01-06T09:42:06.091Z,92.18
2023-01-06T09:43:20.623Z,92.13
2023-01-06T09:44:29.688Z,91.87
2023-01-06T09:45:39.215Z,91.34
2023-01-06T09:46:44.056Z,92.12
2023-01-06T09:47:52.340Z,91.39
2023-01-06T09:49:03.119Z,91.88
2023-01-06T09:50:10.791Z,90.98
2023-01-06T09:51:20.002Z,90.65
2023-01-06T09:52:29.775Z,90.06
2023-01-06T09:53:35.601Z,89.37
2023-01-06T09:54:45.007Z,89.10
2023-01-06T09:55:50.364Z,90.00
2023-01-06T09:56:56.703Z,89.48
2023-01-06T09:58:01.762Z,89.02
2023-01-06T09:59:09.228Z,88.87
2023-01-06T10:00:20.997Z,89.22
2023-01-06T10:01:31.616Z,88.19
2023-01-06T10:02:37.813Z,88.60
2023-01-06T10:03:40.567Z,88.63
2023-01-06T10:04:42.392Z,88.14
2023-01-06T10:05:58.230Z,88.69
2023-01-06T10:07:14.302Z,88.05
2023-01-06T10:08:25.800Z,88.29
2023-01-06T10:09:33.174Z,85.77
2023-01-06T10:10:45.131Z,85.68
2023-01-06T10:11:57.383Z,85.77
2023-01-06T10:13:12.010Z,86.12
2023-01-06T10:14:21.550Z,85.62
2023-01-06T10:15:34.454Z,84.58
2023-01-06T10:16:53.140Z,83.42
2023-01-06T10:18:26.606Z,82.96
2023-01-06T10:19:36.611Z,83.57
2023-01-06T10:20:51.117Z,83.54
2023-01-06T10:22:04.402Z,82.92
2023-01-06T10:23:12.525Z,81.89
2023-01-06T10:24:29.458Z,80.86
2023-01-06T10:25:35.247Z,79.28
2023-01-06T10:26:43.697Z,78.85
2023-01-06T10:27:54.461Z,78.64
2023-01-06T10:29:00.129Z,78.65
2023-01-06T10:30:07.132Z,78.95
2023-01-06T10:31:13.413Z,78.50
2023-01-06T10:32:17.091Z,78.02
2023-01-06T10:34:35.756Z,76.50
2023-01-06T10:35:38.388Z,75.48
2023-01-06T10:36:46.198Z,75.47
2023-01-06T10:37:50.359Z,73.64
2023-01-06T10:38:54.374Z,74.64
2023-01-06T10:40:01.544Z,74.49
2023-01-06T10:41:14.684Z,75.51
2023-01-06T10:42:43.475Z,75.03
2023-01-06T10:43:45.924Z,75.72
2023-01-06T10:44:48.472Z,75.83
2023-01-06T10:45:51.516Z,75.24
2023-01-06T10:46:53.089Z,76.43
2023-01-06T10:47:56.232Z,76.28
2023-01-06T10:48:58.693Z,77.41
2023-01-06T10:50:00.746Z,77.53
2023-01-06T10:51:21.530Z,77.25
2023-01-06T10:52:26.335Z,76.36
2023-01-06T10:53:28.785Z,76.63
2023-01-06T10:54:33.767Z,77.00
2023-01-06T10:55:40.618Z,76.21
2023-01-06T10:56:48.049Z,75.81
2023-01-06T10:57:52.067Z,76.51
2023-01-06T10:58:58.613Z,77.21
2023-01-06T11:00:14.044Z,76.43
2023-01-06T11:01:18.576Z,76.69
2023-01-06T11:02:22.439Z,75.48
2023-01-06T11:03:33.285Z,75.73
2023-01-06T11:04:41.712Z,75.52
2023-01-06T11:05:43.352Z,74.07
2023-01-06T11:06:49.686Z,75.27
2023-01-06T11:07:59.472Z,75.35
2023-01-06T11:09:08.591Z,74.74
2023-01-06T11:10:26.586Z,75.81
2023-01-06T11:11:29.584Z,75.54
2023-01-06T11:12:32.441Z,75.19
2023-01-06T11:13:35.991Z,76.67
2023-01-06T11:14:40.494Z,76.49
2023-01-06T11:15:42.769Z,75.51
2023-01-06T11:16:56.027Z,75.38
2023-01-06T11:17:57.608Z,75.20
2023-01-06T11:19:03.829Z,74.84
2023-01-06T11:20:09.529Z,75.29
2023-01-06T11:21:14.420Z,76.34
2023-01-06T11:22:33.921Z,76.92
2023-01-06T11:23:41.148Z,75.93
2023-01-06T11:24:52.701Z,76.74
2023-01-06T11:26:07.111Z,75.98
2023-01-06T11:27:17.466Z,76.03
2023-01-06T11:28:20.570Z,76.92
2023-01-06T11:29:28.458Z,76.90
2023-01-06T11:30:30.188Z,76.57
2023-01-06T11:31:32.792Z,76.73
2023-01-06T11:32:34.728Z,75.58
2023-01-06T11:33:47.827Z,76.19
2023-01-06T11:34:55.392Z,76.53
2023-01-06T11:35:57.747Z,75.54
2023-01-06T11:37:00.963Z,75.98
2023-01-06T11:38:02.560Z,75.10
2023-01-06T11:39:16.152Z,76.17
2023-01-06T11:40:23.360Z,75.50
2023-01-06T11:41:29.898Z,75.86
2023-01-06T11:42:31.466Z,75.42
2023-01-06T11:43:33.975Z,76.75
2023-01-06T11:44:38.571Z,76.12
2023-01-06T11:45:46.964Z,76.76
2023-01-06T11:46:52.977Z,75.38
2023-01-06T11:47:55.937Z,74.69
2023-01-06T11:49:04.447Z,71.55
2023-01-06T11:50:08.586Z,68.33
2023-01-06T11:51:10.656Z,65.49
2023-01-06T11:52:24.205Z,62.93
2023-01-06T11:53:26.611Z,60.68
2023-01-06T11:54:37.936Z,60.62
2023-01-06T11:55:56.459Z,59.38
2023-01-06T11:57:16.234Z,58.59
2023-01-06T11:58:26.397Z,55.40
2023-01-06T11:59:38.476Z,54.47
2023-01-06T12:00:52.576Z,55.00
2023-01-06T12:01:58.184Z,55.57
2023-01-06T12:03:09.561Z,54.87
2023-01-06T12:04:20.633Z,56.39
2023-01-06T12:05:29.093Z,52.97
2023-01-06T12:06:37.053Z,53.11
2023-01-06T12:07:43.188Z,52.66
2023-01-06T12:08:52.734Z,51.47
2023-01-06T12:10:02.678Z,52.91
2023-01-06T12:11:13.319Z,50.81
2023-01-06T12:12:21.442Z,51.50
2023-01-06T12:13:23.740Z,49.83
2023-01-06T12:14:30.540Z,49.50
2023-01-06T12:15:35.480Z,49.42
2023-01-06T12:16:40.944Z,52.73
2023-01-06T12:17:50.637Z,55.56
2023-01-06T12:18:53.859Z,56.33
2023-01-06T12:20:01.347Z,56.56
2023-01-06T12:21:05.377Z,55.09
2023-01-06T12:22:20.337Z,54.01
2023-01-06T12:23:27.252Z,54.51
2023-01-06T12:24:32.144Z,54.35
2023-01-06T12:25:39.921Z,56.89
2023-01-06T12:26:43.423Z,57.37
2023-01-06T12:27:51.639Z,58.17
2023-01-06T12:28:58.308Z,59.34
2023-01-06T12:30:03.800Z,60.82
2023-01-06T12:31:11.981Z,60.21
2023-01-06T12:32:20.267Z,59.24
2023-01-06T12:33:30.219Z,61.57
2023-01-06T12:34:38.607Z,61.64
2023-01-06T12:35:44.925Z,60.87
2023-01-06T12:36:52.003Z,61.47
2023-01-06T12:37:57.982Z,62.87
2023-01-06T12:39:04.148Z,63.38
2023-01-06T12:40:13.462Z,64.84
2023-01-06T12:41:23.541Z,64.94
2023-01-06T12:42:30.652Z,65.65
2023-01-06T12:43:38.155Z,67.79
2023-01-06T12:44:46.361Z,69.16
2023-01-06T12:45:57.965Z,70.44
2023-01-06T12:47:05.331Z,69.72
2023-01-06T12:48:17.660Z,69.05
2023-01-06T12:49:30.676Z,69.59
2023-01-06T12:50:39.867Z,70.77
2023-01-06T12:51:46.389Z,70.97
2023-01-06T12:52:51.438Z,70.98
2023-01-06T12:53:58.504Z,71.95
2023-01-06T12:55:01.959Z,72.32
2023-01-06T12:56:22.843Z,72.52
2023-01-06T12:57:39.217Z,72.89
2023-01-06T12:58:51.079Z,73.44
2023-01-06T13:00:13.720Z,75.34
2023-01-06T13:01:21.521Z,73.92
2023-01-06T13:02:42.774Z,74.18
2023-01-06T13:04:01.257Z,74.53
2023-01-06T13:05:43.255Z,75.51
2023-01-06T13:07:02.372Z,75.35
2023-01-06T13:08:23.499Z,76.00
2023-01-06T13:09:41.331Z,76.37
2023-01-06T13:10:47.289Z,76.72
2023-01-06T13:12:07.358Z,78.09
2023-01-06T13:13:38.380Z,77.67
2023-01-06T13:14:44.851Z,77.53
2023-01-06T13:15:47.811Z,77.67
2023-01-06T13:16:57.014Z,77.93
2023-01-06T13:18:11.879Z,78.23
2023-01-06T13:19:27.588Z,78.37
2023-01-06T13:20:35.787Z,77.80
2023-01-06T13:21:40.401Z,77.30
2023-01-06T13:22:55.669Z,76.84
2023-01-06T13:24:12.280Z,77.45
2023-01-06T13:25:37.504Z,77.11
2023-01-06T13:27:07.007Z,76.82
2023-01-06T13:28:19.762Z,77.36
2023-01-06T13:29:37.531Z,77.39
2023-01-06T13:31:07.906Z,77.23
2023-01-06T13:32:26.666Z,76.91
2023-01-06T13:33:56.494Z,77.02
2023-01-06T13:35:33.700Z,76.27
2023-01-06T13:37:12.724Z,75.36
2023-01-06T13:38:33.786Z,75.80
2023-01-06T13:39:37.992Z,75.67
2023-01-06T13:40:40.635Z,76.42
2023-01-06T13:41:46.759Z,77.63
2023-01-06T13:42:58.944Z,77.86
2023-01-06T13:44:01.875Z,76.98
2023-01-06T13:45:08.741Z,76.42
2023-01-06T13:46:15.220Z,77.20
2023-01-06T13:47:23.190Z,77.08
2023-01-06T13:48:28.844Z,77.24
2023-01-06T13:49:32.772Z,76.87
2023-01-06T13:50:37.752Z,77.17
2023-01-06T13:51:45.508Z,77.22
2023-01-06T13:52:50.071Z,77.31
2023-01-06T13:53:54.778Z,77.37
2023-01-06T13:55:02.618Z,77.35
2023-01-06T13:56:27.447Z,78.01
2023-01-06T13:57:33.585Z,77.45
2023-01-06T13:58:38.776Z,78.02
2023-01-06T13:59:49.791Z,77.78
2023-01-06T14:01:07.250Z,77.76
2023-01-06T14:02:48.337Z,77.50
2023-01-06T14:03:52.729Z,78.67
2023-01-06T14:04:54.282Z,79.30
2023-01-06T14:05:58.907Z,79.08
2023-01-06T14:07:00.942Z,79.39